Dutch
Home     News     Corporate     Events & Tours     Flight ops     Crew centre      
My transavia virtual    Join us    Last logs    Who is flying    Forum    Software    Training    VRTS     
 

view flightdata
view flightplan
view OFP
view flightlog



flightdata:
pilot: Hubert Schepers
flight: TRA749
from: LFML (Marseille)
to: EHAM (Amsterdam Schiphol)
date: 14-02-2019
departure: 19:28z
arrival: 21:11z
duration: 1:41
aircraft: B737 (PHXRB)
distance: 576 NM
touchdown: -46 ft/m @ 147 KIAS



flightplan:
-(FPL-TRA749-IS
-B737/M-SDEFGHIJRWXYZ/LB1
-LFML1942
-N0438F360 ETREK/N0443F380 UM976 BRY UM733 KOPOR UN874 VEKIN UN873 FERDI UY18 DENUT
-EHAM0130 EHRD
-PBN/A1B1C1D1L1O1S1 NAV/RNVD1E2A1 DOF/190214 REG/PHXRB EET/LFFF0007 EBUR0106 EHAA0113 SEL/GQBE RVR/200 OPR/TRA)



operational flightplan (OFP):
DISPATCH BRIEFING (TEL:
--------- --------- --------- --------- --------- --------- ---------  
PREDEPARTURE ATC CLEARANCE:
.
.
--------- --------- --------- --------- --------- --------- ---------  
OFP  1    14 FEB 19/19:27
                                    OBS  3017

TRA749     C/S TRA5575  LFML/MRS   EHAM/AMS         CRZ SYS     CI 14
01122018   PH-XRB       0155/0155  0336/0341        GND DIST      593
B737-700 CFTAB:.....    CTOT:....  STA  0340        AIR DIST      593
                                                    AVG W/C         0
MAXIMUM    ZFW  55202  LAW  58604  TOW  69975       AVG ISA       M10
ESTIMATED  ZFW  53832  LAW  56392  TOW  59902       F-F FACTOR    0.0
ACTUAL     ZFW  .....  LAW  .....  TOW  .....
--------- --------- --------- --------- --------- --------- ---------
TRIP        3510   0131           .....  .....
CONT         176   0005           .....  .....
ALTN         444   0010  EHRD     .....  .....  ....
FINAL       1009   0030           .....  .....
ADDNL        931   0028           .....  .....
TANKERING                  
PLN TOF     5139   0216
DIFF        ....   ....
PLN TOF     ....   ....  (CORRECTED)   
EXTRA          0   ....                  
TOF         5139   ....                 
TAXI         200   ....                  
BLOCK       6270   ....        
--------- --------- --------- --------- --------- --------- ---------
REASON EXTRA FUEL      MATRIX FUEL:
O ECN-ECONAMICAL     O TMP-TEMPORARILY      O ATC-AIR TRAFFIC CNTRL
O FOB-FUEL ON.BOARD  O MSC-MISCELLANEOUS    O FPC-FLIGHT PLN CORR
O WXR-WEATHER        O TEC-TECHNICAL        ACT.CI/CRZ USED: . . .   

--------- --------- --------- --------- --------- --------- ---------

ZFW ZFW 1000 : PLN TOF   XXXXX/TRIP XXXXX 00 MIN HOLD DEST: 0 EXTRA
ZFW ZFW-1000 : PLN TOF   XXXXX/TRIP XXXXX
--------- --------- --------- --------- --------- --------- ---------
COMMANDERS NAME:                           SIGNATURE:

--------- --------- --------- --------- --------- --------- ---------
FROM:  LFML ELEV70       TO: EHAM ELEV-11        ALTN: EHRD ELEV -14
ATC C/S     : TRA55TRA749             AVG ISA : M10
CO-ROUTE    :                        AVG TT  :   
FMC-RES FUEL: 1453                   AVG W/C :    0
CRZ ALT     : FL360                  FL310
CI          : CI 14                  FL200     360/000
                                     FL100

LFML/31R N0438F360 ETRE5C ETREK/N0443F380 UM976 BRY UM733 KOPOR
UN874 VEKIN UN873 FERDI UY18 DENUT DENU1A EHAM/18R

--------- --------- --------- --------- --------- --------- ---------
.
.
--------- --------- --------- --------- --------- --------- ---------
RVSM ALT CHECK:  FL:...... LEFT: ...... STBY: ...... RIGHT: ......

--------- --------- --------- --------- --------- --------- ---------
DESTINATION ALTERNATE EHRD
--------- --------- --------- --------- --------- --------- ---------

--------- --------- --------- --------- --------- --------- ---------
--------- --------- --------- --------- --------- --------- ---------
ALTERNATE SUMMARY
--------- --------- --------- --------- --------- --------- ---------
      ALTN        DIST   LVL       WC TIME  FUEL VIA
      EHRD/24       27  FL050    0 0010   444 AMS
INFO/EHGG/23       93  FL150    0 0022   940 AMS DCT EEL
INFO/EBBR/25L      94  FL150    0 0022   951 AMS DCT BUB
INFO/EHBK/21      105  FL170    0 0024  1028 AMS DCT MAS
--------- --------- --------- --------- --------- --------- ---------

-(FPL-TRA749-IS
-B737/M-SDE1FGHIJ1RWXYZ/LB1
-LFML1942
-N0438F360 ETREK/N0443F380 UM976 BRY UM733 KOPOR UN874 VEKIN UN873 FERDI UY18 DENUT
-EHAM0130 EHRD
-PBN/A1B1C1D1L1O1S1 NAV/RNVD1E2A1 DOF/190214 REG/PHXRB EET/LFFF0007 EBUR0106 EHAA0113 SEL/GQBE RVR/200 OPR/TRA)

WEATHER BRIEFING - GENERATED 14 FEB 2019 19:27 UTC
--------------------------------------------------------------------------------

LFML EHAM EHRD EHGG EBBR EHBK

--------------------------------------------------------------------------------
ORIGIN: LFML (MARSEILLE)
--------------------------------------------------------------------------------
LFML 141900Z AUTO 17002KT CAVOK 09/07 Q1032 NOSIG

LFML 141400Z 1415/1521 27005KT CAVOK TX16/1515Z TN02/1506Z
      BECMG 1417/1418 VRB05KT
      TEMPO 1503/1507 3000 BR


--------------------------------------------------------------------------------
DESTINATION: EHAM (SCHIPHOL)
--------------------------------------------------------------------------------
EHAM 141855Z 12004KT CAVOK 05/02 Q1033 NOSIG

EHAM 141707Z 1418/1524 17007KT CAVOK PROB30 1504/1508 MIFG=  EHBK 141705Z 1418/1524 14004KT CAVOK


--------------------------------------------------------------------------------
ALTERNATE: EHRD (ROTTERDAM)
--------------------------------------------------------------------------------
EHRD 141855Z AUTO 11004KT 9999 NCD 05/02 Q1033 NOSIG

EHRD 141708Z 1418/1524 17007KT CAVOK PROB30 1503/1508 4000 MIFG BR


--------------------------------------------------------------------------------
ALTERNATE: EHGG (GRONINGEN)
--------------------------------------------------------------------------------
EHGG 141855Z AUTO 15002KT 9999 NCD 02/01 Q1033 NOSIG

EHGG 141707Z 1418/1524 19006KT CAVOK PROB40 1421/1508 4000 BR


--------------------------------------------------------------------------------
ALTERNATE: EBBR (BRUSSELS)
--------------------------------------------------------------------------------
EBBR 141850Z 12004KT CAVOK 09/02 Q1033 NOSIG

EBBR 141710Z 1418/1524 15004KT CAVOK=  EDDF 141700Z 1418/1524 07003KT CAVOK


--------------------------------------------------------------------------------
ALTERNATE: EHBK (MAASTRICHT)
--------------------------------------------------------------------------------
EHBK 141855Z AUTO 10005KT 9999 NSC 08/02 Q1033 NOSIG

EHBK 141705Z 1418/1524 14004KT CAVOK


NOTAM BRIEFING - GENERATED 14 FEB 2019 19:27 UTC
--------------------------------------------------------------------------------

LFML EHAM EHRD EHRD EHGG EBBR EHBK

--------------------------------------------------------------------------------
GLOBAL TRANSAVIA.COM VIRTUAL NOTAMS
--------------------------------------------------------------------------------
REF:NIL PLEASE CONTACT OPERATIONS IN CASE OF STRUCTURAL FLIGHTPLAN ERRORS ON FLIGHT-OPS@TRANSAVIA-VIRTUAL.COM
VALID:UFN

REF:NIL
PLEASE CHECK ACARS EVERY 10 MINUTES WHEN FLYING WITH SOUND OFF. AN NEW ACARS MESSAGE PRODUCE A SOUND SIGNAL UNTILL ITS READ. FLOWCONTROL DON'T RECEIVE MUCH REACTION ON OUTGOING ACARS MESSAGES ACCORDING FLIGHTSTATUS.
SOURCE: SPL/HV/OCC/
END VALID: UFN

REF:NIL
PLEASE CONTACT FLOWCONTROL IN CASE OF PROBLEMS WITH ROUTINGS
SOURCE: SPL/HV/OCC/
END VALID: UFN

REF:NIL
IN CASE OF ENGINE-OUT FLY V2 OR V2 20 MAX. UNTIL ABOVE MSA.
LEVEL-OFF AT AN ALTITUDE ROUNDED OFF TO THE FIRST 1000 FT OF THE HIGHEST MSA.
E.G: MSA EHAM; 1.7 AND 2.3 LEVEL-OFF 3000 FT. AFTER LANDING MAKE A REP TO OCC ON 131.975
SOURCE:SPL/HV/OCC
END VALID:UFN



flightlog:
Pilot : Hubert Schepers
Flight: TRA749
From  : LFML Marseille
To    : EHAM Schiphol

[FLIGHTLOG] 1.5.4
14-02-2019 19:28:52z, logging started
14-02-2019 19:30:33z, flaps set to 13%
14-02-2019 19:30:40z, flaps set to 25%
14-02-2019 19:30:44z, flaps set to 38%
14-02-2019 19:30:48z, flaps set to 50%
14-02-2019 19:30:52z, flaps set to 62%
14-02-2019 19:30:54z, flaps set to 75%
14-02-2019 19:30:58z, flaps set to 87%
14-02-2019 19:31:02z, flaps set to 100%
14-02-2019 19:31:07z, take-off at 145 KIAS
14-02-2019 19:31:07z, pos report: 145 KIAS, 00 084 ft, heading 311, winds 300 @ 10 kts
14-02-2019 19:31:08z, flying OFFLINE
14-02-2019 19:31:08z, position: LFML - Marseille
14-02-2019 19:31:15z, flaps set to 87%
14-02-2019 19:31:20z, flaps set to 75%
14-02-2019 19:31:24z, retracted gear at 162 KIAS and 376 ft AGL
14-02-2019 19:31:26z, flaps set to 50%
14-02-2019 19:31:30z, flaps set to 38%
14-02-2019 19:31:33z, flaps set to 25%
14-02-2019 19:31:38z, flaps set to 13%
14-02-2019 19:31:45z, flaps set to 0%
14-02-2019 19:43:53z, pos report: 275 KIAS, 18 299 ft, heading 342, winds 295 @ 25 kts
14-02-2019 19:58:54z, pos report: 250 KIAS, 30 601 ft, heading 342, winds 308 @ 25 kts
14-02-2019 20:13:55z, pos report: 250 KIAS, 30 601 ft, heading 342, winds 301 @ 25 kts
14-02-2019 20:28:56z, pos report: 250 KIAS, 30 601 ft, heading 356, winds 297 @ 25 kts
14-02-2019 20:43:56z, pos report: 250 KIAS, 30 601 ft, heading 020, winds 295 @ 25 kts
14-02-2019 20:50:56z, deployed spoilers
14-02-2019 20:54:49z, retracted spoilers
14-02-2019 20:58:57z, pos report: 338 KIAS, 04 688 ft, heading 028, winds 176 @ 10 kts
14-02-2019 21:05:48z, below glideslope
14-02-2019 21:06:03z, flaps set to 13%
14-02-2019 21:06:14z, on glideslope
14-02-2019 21:06:28z, below glideslope
14-02-2019 21:08:54z, flaps set to 25%
14-02-2019 21:08:59z, on glideslope
14-02-2019 21:09:18z, intercepted localizer
14-02-2019 21:09:40z, flaps set to 38%
14-02-2019 21:09:55z, flaps set to 50%
14-02-2019 21:10:11z, flaps set to 62%
14-02-2019 21:10:17z, lowered gear at 151 KIAS and 825 ft AGL
14-02-2019 21:11:27z, touchdown: -46ft/m at 147 KIAS
14-02-2019 21:11:27z, pos report: 147 KIAS, -00 002 ft, heading 180, winds 115 @ 07 kts
14-02-2019 21:11:27z, flying OFFLINE
14-02-2019 21:11:27z, position: EHAM - Schiphol
14-02-2019 21:11:28z, deployed spoilers
14-02-2019 21:11:41z, retracted spoilers
14-02-2019 21:11:45z, flaps set to 50%
14-02-2019 21:11:48z, flaps set to 38%
14-02-2019 21:11:53z, flaps set to 25%
14-02-2019 21:11:56z, flaps set to 13%
14-02-2019 21:12:04z, flaps set to 0%
14-02-2019 21:13:58z, pos report: 043 KIAS, -00 004 ft, heading 129, winds 116 @ 07 kts
14-02-2019 21:11:26z, parking brake set
14-02-2019 21:14:31z, logging ended
14-02-2019 21:14:31z, this flight was flown offline

©2009-2019, transavia virtual. All rights reserved. This website is only meant for simulation purposes.
This website is not owned by transavia, nor is transavia responsible for the content of this website.